sensor_id;sensor_type;location;lat;lon;timestamp;pressure;altitude;pressure_sealevel;temperature;humidity
39954;BME280;25631;51.516;-0.470;2022-08-14T00:00:13;100868.42;;;25.15;21.29
39954;BME280;25631;51.516;-0.470;2022-08-14T00:02:51;100860.73;;;25.35;21.27
39954;BME280;25631;51.516;-0.470;2022-08-14T00:05:27;100854.82;;;25.12;21.24
39954;BME280;25631;51.516;-0.470;2022-08-14T00:08:04;100850.47;;;25.20;21.25
39954;BME280;25631;51.516;-0.470;2022-08-14T00:10:41;100852.36;;;25.14;21.26
39954;BME280;25631;51.516;-0.470;2022-08-14T00:13:18;100847.49;;;25.24;21.23
39954;BME280;25631;51.516;-0.470;2022-08-14T00:15:57;100843.54;;;25.39;21.23
39954;BME280;25631;51.516;-0.470;2022-08-14T00:18:34;100837.98;;;25.38;21.27
39954;BME280;25631;51.516;-0.470;2022-08-14T00:21:10;100840.51;;;24.92;21.34
39954;BME280;25631;51.516;-0.470;2022-08-14T00:23:47;100838.12;;;24.92;21.41
39954;BME280;25631;51.516;-0.470;2022-08-14T00:26:24;100833.26;;;25.04;21.45
39954;BME280;25631;51.516;-0.470;2022-08-14T00:29:00;100828.53;;;24.92;21.53
39954;BME280;25631;51.516;-0.470;2022-08-14T00:31:37;100826.39;;;24.84;21.55
39954;BME280;25631;51.516;-0.470;2022-08-14T00:34:13;100825.14;;;24.73;21.64
39954;BME280;25631;51.516;-0.470;2022-08-14T00:36:50;100826.25;;;24.74;21.69
39954;BME280;25631;51.516;-0.470;2022-08-14T00:39:26;100824.47;;;24.55;21.69
39954;BME280;25631;51.516;-0.470;2022-08-14T00:42:04;100821.60;;;24.58;21.75
39954;BME280;25631;51.516;-0.470;2022-08-14T00:44:40;100819.95;;;24.40;21.82
39954;BME280;25631;51.516;-0.470;2022-08-14T00:47:17;100816.84;;;24.45;21.96
39954;BME280;25631;51.516;-0.470;2022-08-14T00:49:54;100814.47;;;24.36;22.08
39954;BME280;25631;51.516;-0.470;2022-08-14T00:52:30;100812.21;;;24.31;22.12
39954;BME280;25631;51.516;-0.470;2022-08-14T00:55:08;100813.06;;;24.54;22.22
39954;BME280;25631;51.516;-0.470;2022-08-14T00:57:45;100813.87;;;24.25;22.35
39954;BME280;25631;51.516;-0.470;2022-08-14T01:00:22;100813.02;;;24.21;22.37
39954;BME280;25631;51.516;-0.470;2022-08-14T01:02:59;100810.19;;;24.03;22.37
39954;BME280;25631;51.516;-0.470;2022-08-14T01:05:35;100810.09;;;24.14;22.39
39954;BME280;25631;51.516;-0.470;2022-08-14T01:08:13;100810.90;;;24.14;22.41
39954;BME280;25631;51.516;-0.470;2022-08-14T01:10:50;100809.52;;;23.84;22.43
39954;BME280;25631;51.516;-0.470;2022-08-14T01:13:39;100811.09;;;23.66;22.50
39954;BME280;25631;51.516;-0.470;2022-08-14T01:16:16;100812.25;;;23.91;22.53
39954;BME280;25631;51.516;-0.470;2022-08-14T01:18:52;100808.82;;;23.93;22.64
39954;BME280;25631;51.516;-0.470;2022-08-14T01:21:30;100807.82;;;23.99;22.67
39954;BME280;25631;51.516;-0.470;2022-08-14T01:24:07;100807.24;;;24.25;22.73
39954;BME280;25631;51.516;-0.470;2022-08-14T01:26:44;100804.68;;;23.96;22.81
39954;BME280;25631;51.516;-0.470;2022-08-14T01:29:21;100806.52;;;23.69;22.85
39954;BME280;25631;51.516;-0.470;2022-08-14T01:31:58;100803.53;;;23.53;22.92
39954;BME280;25631;51.516;-0.470;2022-08-14T01:34:34;100797.99;;;23.83;23.03
39954;BME280;25631;51.516;-0.470;2022-08-14T01:37:10;100790.04;;;23.47;23.14
39954;BME280;25631;51.516;-0.470;2022-08-14T01:39:47;100787.73;;;23.69;23.24
39954;BME280;25631;51.516;-0.470;2022-08-14T01:42:24;100784.97;;;23.41;23.41
39954;BME280;25631;51.516;-0.470;2022-08-14T01:45:00;100782.02;;;23.31;23.54
39954;BME280;25631;51.516;-0.470;2022-08-14T01:47:37;100781.64;;;23.15;23.68
39954;BME280;25631;51.516;-0.470;2022-08-14T01:50:14;100777.42;;;23.14;23.88
39954;BME280;25631;51.516;-0.470;2022-08-14T01:52:50;100775.99;;;23.18;23.87
39954;BME280;25631;51.516;-0.470;2022-08-14T01:55:28;100775.01;;;23.06;23.95
39954;BME280;25631;51.516;-0.470;2022-08-14T01:58:04;100770.78;;;22.82;23.94
39954;BME280;25631;51.516;-0.470;2022-08-14T02:00:41;100766.63;;;23.03;23.98
39954;BME280;25631;51.516;-0.470;2022-08-14T02:03:17;100764.67;;;23.00;23.99
39954;BME280;25631;51.516;-0.470;2022-08-14T02:05:54;100760.79;;;22.75;24.05
39954;BME280;25631;51.516;-0.470;2022-08-14T02:08:30;100755.48;;;22.62;24.12
39954;BME280;25631;51.516;-0.470;2022-08-14T02:11:08;100751.75;;;23.03;24.13
39954;BME280;25631;51.516;-0.470;2022-08-14T02:13:47;100747.61;;;22.66;24.23
39954;BME280;25631;51.516;-0.470;2022-08-14T02:16:27;100743.10;;;22.60;24.34
39954;BME280;25631;51.516;-0.470;2022-08-14T02:19:06;100743.51;;;22.76;24.45
39954;BME280;25631;51.516;-0.470;2022-08-14T02:21:45;100740.18;;;22.37;24.52
39954;BME280;25631;51.516;-0.470;2022-08-14T02:24:24;100733.90;;;22.18;24.61
39954;BME280;25631;51.516;-0.470;2022-08-14T02:27:01;100726.95;;;22.09;24.71
39954;BME280;25631;51.516;-0.470;2022-08-14T02:29:38;100727.21;;;22.20;24.84
39954;BME280;25631;51.516;-0.470;2022-08-14T02:32:14;100727.29;;;22.12;24.86
39954;BME280;25631;51.516;-0.470;2022-08-14T02:34:51;100724.80;;;22.05;24.99
39954;BME280;25631;51.516;-0.470;2022-08-14T02:37:28;100721.36;;;22.06;25.07
39954;BME280;25631;51.516;-0.470;2022-08-14T02:40:05;100720.48;;;21.89;25.29
39954;BME280;25631;51.516;-0.470;2022-08-14T02:42:42;100724.81;;;21.90;25.43
39954;BME280;25631;51.516;-0.470;2022-08-14T02:45:19;100723.10;;;21.90;25.50
39954;BME280;25631;51.516;-0.470;2022-08-14T02:47:55;100718.35;;;21.92;25.62
39954;BME280;25631;51.516;-0.470;2022-08-14T02:50:31;100714.68;;;21.72;25.77
39954;BME280;25631;51.516;-0.470;2022-08-14T02:53:08;100718.50;;;21.85;25.90
39954;BME280;25631;51.516;-0.470;2022-08-14T02:55:45;100718.56;;;21.85;25.95
39954;BME280;25631;51.516;-0.470;2022-08-14T02:58:21;100717.68;;;21.37;25.99
39954;BME280;25631;51.516;-0.470;2022-08-14T03:00:58;100715.23;;;21.57;26.04
39954;BME280;25631;51.516;-0.470;2022-08-14T03:03:36;100714.40;;;21.66;26.06
39954;BME280;25631;51.516;-0.470;2022-08-14T03:06:14;100719.67;;;21.66;26.12
39954;BME280;25631;51.516;-0.470;2022-08-14T03:08:52;100722.30;;;21.85;26.23
39954;BME280;25631;51.516;-0.470;2022-08-14T03:11:29;100722.89;;;21.89;26.37
39954;BME280;25631;51.516;-0.470;2022-08-14T03:14:06;100719.92;;;21.58;26.52
39954;BME280;25631;51.516;-0.470;2022-08-14T03:16:42;100718.35;;;21.39;26.56
39954;BME280;25631;51.516;-0.470;2022-08-14T03:19:19;100717.03;;;21.53;26.71
39954;BME280;25631;51.516;-0.470;2022-08-14T03:21:55;100716.40;;;21.47;26.73
39954;BME280;25631;51.516;-0.470;2022-08-14T03:24:32;100718.36;;;21.63;26.79
39954;BME280;25631;51.516;-0.470;2022-08-14T03:27:09;100718.50;;;21.57;26.92
39954;BME280;25631;51.516;-0.470;2022-08-14T03:29:45;100717.74;;;21.51;27.12
39954;BME280;25631;51.516;-0.470;2022-08-14T03:32:22;100718.05;;;21.45;27.11
39954;BME280;25631;51.516;-0.470;2022-08-14T03:34:58;100717.46;;;21.33;27.15
39954;BME280;25631;51.516;-0.470;2022-08-14T03:37:34;100716.70;;;21.28;27.28
39954;BME280;25631;51.516;-0.470;2022-08-14T03:40:11;100715.59;;;21.34;27.31
39954;BME280;25631;51.516;-0.470;2022-08-14T03:42:48;100714.41;;;21.21;27.33
39954;BME280;25631;51.516;-0.470;2022-08-14T03:45:25;100714.11;;;21.17;27.40
39954;BME280;25631;51.516;-0.470;2022-08-14T03:48:02;100709.96;;;21.27;27.48
39954;BME280;25631;51.516;-0.470;2022-08-14T03:50:39;100707.06;;;21.12;27.64
39954;BME280;25631;51.516;-0.470;2022-08-14T03:53:16;100708.97;;;21.21;27.80
39954;BME280;25631;51.516;-0.470;2022-08-14T03:55:53;100710.71;;;20.94;27.79
39954;BME280;25631;51.516;-0.470;2022-08-14T03:58:30;100710.77;;;20.90;27.84
39954;BME280;25631;51.516;-0.470;2022-08-14T04:01:06;100710.50;;;20.89;27.87
39954;BME280;25631;51.516;-0.470;2022-08-14T04:03:43;100706.55;;;20.93;27.96
39954;BME280;25631;51.516;-0.470;2022-08-14T04:06:20;100702.66;;;20.95;28.06
39954;BME280;25631;51.516;-0.470;2022-08-14T04:08:57;100698.89;;;20.74;28.12
39954;BME280;25631;51.516;-0.470;2022-08-14T04:11:33;100698.70;;;20.85;28.16
39954;BME280;25631;51.516;-0.470;2022-08-14T04:14:10;100694.04;;;20.85;28.18
39954;BME280;25631;51.516;-0.470;2022-08-14T04:16:46;100693.04;;;20.83;28.24
39954;BME280;25631;51.516;-0.470;2022-08-14T04:19:23;100686.38;;;20.90;28.29
39954;BME280;25631;51.516;-0.470;2022-08-14T04:21:59;100678.11;;;20.79;28.32
39954;BME280;25631;51.516;-0.470;2022-08-14T04:24:35;100669.25;;;20.79;28.34
39954;BME280;25631;51.516;-0.470;2022-08-14T04:27:12;100664.99;;;20.78;28.46
39954;BME280;25631;51.516;-0.470;2022-08-14T04:29:49;100658.60;;;20.65;28.49
39954;BME280;25631;51.516;-0.470;2022-08-14T04:32:25;100651.94;;;20.55;28.84
39954;BME280;25631;51.516;-0.470;2022-08-14T04:35:03;100650.58;;;20.42;28.91
39954;BME280;25631;51.516;-0.470;2022-08-14T04:37:39;100651.55;;;20.42;29.06
39954;BME280;25631;51.516;-0.470;2022-08-14T04:40:16;100647.40;;;20.42;29.11
39954;BME280;25631;51.516;-0.470;2022-08-14T04:42:53;100640.96;;;20.32;29.18
39954;BME280;25631;51.516;-0.470;2022-08-14T04:45:29;100636.74;;;20.22;29.31
39954;BME280;25631;51.516;-0.470;2022-08-14T04:48:08;100638.92;;;20.47;29.45
39954;BME280;25631;51.516;-0.470;2022-08-14T04:50:48;100641.08;;;20.15;29.65
39954;BME280;25631;51.516;-0.470;2022-08-14T04:53:27;100645.21;;;20.21;29.74
39954;BME280;25631;51.516;-0.470;2022-08-14T04:56:04;100647.10;;;20.33;29.75
39954;BME280;25631;51.516;-0.470;2022-08-14T04:58:41;100647.30;;;20.24;29.78
39954;BME280;25631;51.516;-0.470;2022-08-14T05:01:18;100649.19;;;20.13;29.81
39954;BME280;25631;51.516;-0.470;2022-08-14T05:03:54;100649.71;;;20.14;29.83
39954;BME280;25631;51.516;-0.470;2022-08-14T05:06:30;100650.56;;;20.18;29.83
39954;BME280;25631;51.516;-0.470;2022-08-14T05:09:07;100647.95;;;20.42;29.86
39954;BME280;25631;51.516;-0.470;2022-08-14T05:11:44;100641.52;;;20.02;29.94
39954;BME280;25631;51.516;-0.470;2022-08-14T05:14:20;100638.70;;;20.33;29.92
39954;BME280;25631;51.516;-0.470;2022-08-14T05:16:56;100640.33;;;20.29;29.99
39954;BME280;25631;51.516;-0.470;2022-08-14T05:19:33;100644.26;;;20.20;30.01
39954;BME280;25631;51.516;-0.470;2022-08-14T05:22:10;100643.90;;;20.12;30.04
39954;BME280;25631;51.516;-0.470;2022-08-14T05:24:47;100641.02;;;20.28;30.10
39954;BME280;25631;51.516;-0.470;2022-08-14T05:27:24;100640.44;;;20.42;30.10
39954;BME280;25631;51.516;-0.470;2022-08-14T05:30:03;100642.13;;;20.14;30.15
39954;BME280;25631;51.516;-0.470;2022-08-14T05:32:40;100644.47;;;20.31;30.20
39954;BME280;25631;51.516;-0.470;2022-08-14T05:35:17;100643.34;;;20.08;30.36
39954;BME280;25631;51.516;-0.470;2022-08-14T05:37:53;100643.47;;;20.20;30.30
39954;BME280;25631;51.516;-0.470;2022-08-14T05:40:30;100645.26;;;20.61;30.33
39954;BME280;25631;51.516;-0.470;2022-08-14T05:43:06;100643.71;;;20.38;30.36
39954;BME280;25631;51.516;-0.470;2022-08-14T05:45:43;100640.18;;;20.05;30.41
39954;BME280;25631;51.516;-0.470;2022-08-14T05:48:20;100641.45;;;20.47;30.43
39954;BME280;25631;51.516;-0.470;2022-08-14T05:50:57;100641.01;;;20.28;30.40
39954;BME280;25631;51.516;-0.470;2022-08-14T05:53:34;100642.46;;;20.48;30.40
39954;BME280;25631;51.516;-0.470;2022-08-14T05:56:10;100643.55;;;20.53;30.34
39954;BME280;25631;51.516;-0.470;2022-08-14T05:58:47;100645.61;;;20.48;30.32
39954;BME280;25631;51.516;-0.470;2022-08-14T06:01:23;100646.48;;;20.19;30.35
39954;BME280;25631;51.516;-0.470;2022-08-14T06:03:59;100644.51;;;20.44;30.31
39954;BME280;25631;51.516;-0.470;2022-08-14T06:06:36;100640.81;;;20.47;30.24
39954;BME280;25631;51.516;-0.470;2022-08-14T06:09:12;100643.14;;;20.53;30.20
39954;BME280;25631;51.516;-0.470;2022-08-14T06:11:49;100642.14;;;20.43;30.15
39954;BME280;25631;51.516;-0.470;2022-08-14T06:14:25;100640.96;;;20.50;30.10
39954;BME280;25631;51.516;-0.470;2022-08-14T06:17:02;100642.88;;;20.54;30.04
39954;BME280;25631;51.516;-0.470;2022-08-14T06:19:39;100641.80;;;20.55;29.98
39954;BME280;25631;51.516;-0.470;2022-08-14T06:22:15;100642.85;;;20.86;29.90
39954;BME280;25631;51.516;-0.470;2022-08-14T06:24:52;100641.63;;;20.80;29.88
39954;BME280;25631;51.516;-0.470;2022-08-14T06:27:29;100644.85;;;20.77;29.88
39954;BME280;25631;51.516;-0.470;2022-08-14T06:30:12;100646.93;;;20.91;29.81
39954;BME280;25631;51.516;-0.470;2022-08-14T06:32:50;100645.52;;;21.10;29.79
39954;BME280;25631;51.516;-0.470;2022-08-14T06:35:26;100646.52;;;20.96;29.78
39954;BME280;25631;51.516;-0.470;2022-08-14T06:38:03;100648.29;;;21.13;29.77
39954;BME280;25631;51.516;-0.470;2022-08-14T06:40:39;100648.11;;;21.25;29.72
39954;BME280;25631;51.516;-0.470;2022-08-14T06:43:17;100652.84;;;21.33;29.70
39954;BME280;25631;51.516;-0.470;2022-08-14T06:45:54;100653.89;;;21.40;29.69
39954;BME280;25631;51.516;-0.470;2022-08-14T06:48:30;100653.63;;;21.52;29.63
39954;BME280;25631;51.516;-0.470;2022-08-14T06:51:07;100651.36;;;21.55;29.56
39954;BME280;25631;51.516;-0.470;2022-08-14T06:53:43;100651.68;;;21.55;29.57
39954;BME280;25631;51.516;-0.470;2022-08-14T06:56:20;100645.25;;;21.87;29.54
39954;BME280;25631;51.516;-0.470;2022-08-14T06:58:56;100644.05;;;21.60;29.54
39954;BME280;25631;51.516;-0.470;2022-08-14T07:01:32;100643.24;;;21.78;29.52
39954;BME280;25631;51.516;-0.470;2022-08-14T07:04:09;100639.82;;;21.87;29.50
39954;BME280;25631;51.516;-0.470;2022-08-14T07:06:46;100636.86;;;21.74;29.38
39954;BME280;25631;51.516;-0.470;2022-08-14T07:09:22;100636.53;;;21.89;29.33
39954;BME280;25631;51.516;-0.470;2022-08-14T07:11:58;100631.20;;;22.13;29.35
39954;BME280;25631;51.516;-0.470;2022-08-14T07:14:35;100629.99;;;22.11;29.31
39954;BME280;25631;51.516;-0.470;2022-08-14T07:17:11;100626.68;;;22.19;29.34
39954;BME280;25631;51.516;-0.470;2022-08-14T07:19:47;100627.49;;;22.18;29.33
39954;BME280;25631;51.516;-0.470;2022-08-14T07:22:24;100626.96;;;22.31;29.32
39954;BME280;25631;51.516;-0.470;2022-08-14T07:25:00;100626.04;;;22.48;29.31
39954;BME280;25631;51.516;-0.470;2022-08-14T07:27:38;100626.73;;;22.36;29.26
39954;BME280;25631;51.516;-0.470;2022-08-14T07:30:15;100625.86;;;22.40;29.23
39954;BME280;25631;51.516;-0.470;2022-08-14T07:32:52;100627.58;;;22.75;29.22
39954;BME280;25631;51.516;-0.470;2022-08-14T07:35:28;100625.75;;;22.73;29.15
39954;BME280;25631;51.516;-0.470;2022-08-14T07:38:05;100621.67;;;22.77;29.09
39954;BME280;25631;51.516;-0.470;2022-08-14T07:40:42;100618.38;;;22.85;29.12
39954;BME280;25631;51.516;-0.470;2022-08-14T07:43:19;100616.59;;;22.84;29.05
39954;BME280;25631;51.516;-0.470;2022-08-14T07:45:55;100611.33;;;23.08;29.00
39954;BME280;25631;51.516;-0.470;2022-08-14T07:48:37;100610.93;;;23.21;28.98
39954;BME280;25631;51.516;-0.470;2022-08-14T07:51:13;100610.63;;;23.02;28.93
39954;BME280;25631;51.516;-0.470;2022-08-14T07:53:50;100610.75;;;23.36;28.85
39954;BME280;25631;51.516;-0.470;2022-08-14T07:56:26;100605.97;;;23.30;28.79
39954;BME280;25631;51.516;-0.470;2022-08-14T07:59:03;100601.52;;;23.17;28.62
39954;BME280;25631;51.516;-0.470;2022-08-14T08:01:39;100596.80;;;23.78;28.51
39954;BME280;25631;51.516;-0.470;2022-08-14T08:04:22;100592.87;;;23.53;28.44
39954;BME280;25631;51.516;-0.470;2022-08-14T08:06:59;100590.19;;;23.62;28.32
39954;BME280;25631;51.516;-0.470;2022-08-14T08:09:36;100585.40;;;23.82;28.16
39954;BME280;25631;51.516;-0.470;2022-08-14T08:12:19;100586.14;;;23.84;28.07
39954;BME280;25631;51.516;-0.470;2022-08-14T08:14:56;100583.89;;;23.78;27.99
39954;BME280;25631;51.516;-0.470;2022-08-14T08:17:34;100582.83;;;23.95;27.87
39954;BME280;25631;51.516;-0.470;2022-08-14T08:20:14;100581.08;;;24.24;27.75
39954;BME280;25631;51.516;-0.470;2022-08-14T08:22:53;100569.32;;;24.37;27.66
39954;BME280;25631;51.516;-0.470;2022-08-14T08:25:31;100563.75;;;24.38;27.58
39954;BME280;25631;51.516;-0.470;2022-08-14T08:28:12;100556.90;;;24.15;27.38
39954;BME280;25631;51.516;-0.470;2022-08-14T08:30:51;100549.32;;;24.22;27.02
39954;BME280;25631;51.516;-0.470;2022-08-14T08:33:30;100544.06;;;24.60;26.73
39954;BME280;25631;51.516;-0.470;2022-08-14T08:36:08;100540.72;;;24.56;26.66
39954;BME280;25631;51.516;-0.470;2022-08-14T08:38:47;100537.91;;;24.65;26.56
39954;BME280;25631;51.516;-0.470;2022-08-14T08:41:23;100535.79;;;25.06;26.35
39954;BME280;25631;51.516;-0.470;2022-08-14T08:44:04;100529.24;;;24.99;26.07
39954;BME280;25631;51.516;-0.470;2022-08-14T08:46:43;100529.26;;;25.00;25.74
39954;BME280;25631;51.516;-0.470;2022-08-14T08:49:19;100530.07;;;25.17;25.48
39954;BME280;25631;51.516;-0.470;2022-08-14T08:52:01;100526.96;;;25.26;25.31
39954;BME280;25631;51.516;-0.470;2022-08-14T08:54:37;100526.01;;;25.34;25.13
39954;BME280;25631;51.516;-0.470;2022-08-14T08:57:15;100525.56;;;25.53;24.91
39954;BME280;25631;51.516;-0.470;2022-08-14T08:59:51;100526.11;;;25.40;24.95
39954;BME280;25631;51.516;-0.470;2022-08-14T09:02:28;100530.09;;;25.28;24.85
39954;BME280;25631;51.516;-0.470;2022-08-14T09:05:05;100530.36;;;25.63;24.88
39954;BME280;25631;51.516;-0.470;2022-08-14T09:07:41;100530.53;;;25.58;24.73
39954;BME280;25631;51.516;-0.470;2022-08-14T09:10:18;100531.67;;;25.34;24.43
39954;BME280;25631;51.516;-0.470;2022-08-14T09:12:54;100529.68;;;25.93;24.15
39954;BME280;25631;51.516;-0.470;2022-08-14T09:15:31;100528.44;;;26.04;23.98
39954;BME280;25631;51.516;-0.470;2022-08-14T09:18:09;100524.25;;;26.02;23.87
39954;BME280;25631;51.516;-0.470;2022-08-14T09:20:47;100525.60;;;25.96;23.98
39954;BME280;25631;51.516;-0.470;2022-08-14T09:23:24;100523.11;;;26.06;23.71
39954;BME280;25631;51.516;-0.470;2022-08-14T09:26:00;100524.79;;;25.95;23.53
39954;BME280;25631;51.516;-0.470;2022-08-14T09:28:37;100523.43;;;26.15;23.32
39954;BME280;25631;51.516;-0.470;2022-08-14T09:31:14;100524.24;;;26.50;23.29
39954;BME280;25631;51.516;-0.470;2022-08-14T09:34:02;100521.03;;;26.35;22.93
39954;BME280;25631;51.516;-0.470;2022-08-14T09:36:51;100519.64;;;26.49;22.64
39954;BME280;25631;51.516;-0.470;2022-08-14T09:39:43;100518.52;;;26.54;22.22
39954;BME280;25631;51.516;-0.470;2022-08-14T09:42:37;100515.00;;;26.72;22.14
39954;BME280;25631;51.516;-0.470;2022-08-14T09:45:19;100514.01;;;27.12;22.31
39954;BME280;25631;51.516;-0.470;2022-08-14T09:47:56;100509.78;;;27.00;22.31
39954;BME280;25631;51.516;-0.470;2022-08-14T09:50:45;100512.52;;;27.26;22.16
39954;BME280;25631;51.516;-0.470;2022-08-14T09:53:41;100509.83;;;27.02;21.98
39954;BME280;25631;51.516;-0.470;2022-08-14T09:56:18;100511.63;;;27.60;21.62
39954;BME280;25631;51.516;-0.470;2022-08-14T09:58:57;100505.31;;;27.28;21.21
39954;BME280;25631;51.516;-0.470;2022-08-14T10:01:35;100502.81;;;27.25;21.15
39954;BME280;25631;51.516;-0.470;2022-08-14T10:04:18;100498.38;;;27.47;21.00
39954;BME280;25631;51.516;-0.470;2022-08-14T10:06:55;100493.64;;;27.31;21.01
39954;BME280;25631;51.516;-0.470;2022-08-14T10:09:31;100489.24;;;27.56;20.91
39954;BME280;25631;51.516;-0.470;2022-08-14T10:12:08;100482.12;;;27.75;20.77
39954;BME280;25631;51.516;-0.470;2022-08-14T10:14:45;100485.68;;;27.84;20.34
39954;BME280;25631;51.516;-0.470;2022-08-14T10:17:22;100480.39;;;27.80;20.15
39954;BME280;25631;51.516;-0.470;2022-08-14T10:19:58;100474.34;;;27.96;20.03
39954;BME280;25631;51.516;-0.470;2022-08-14T10:22:35;100470.60;;;27.90;19.59
39954;BME280;25631;51.516;-0.470;2022-08-14T10:25:13;100472.45;;;28.05;19.24
39954;BME280;25631;51.516;-0.470;2022-08-14T10:27:56;100472.29;;;28.23;18.63
39954;BME280;25631;51.516;-0.470;2022-08-14T10:30:34;100474.68;;;28.27;18.92
39954;BME280;25631;51.516;-0.470;2022-08-14T10:33:10;100473.52;;;28.31;19.14
39954;BME280;25631;51.516;-0.470;2022-08-14T10:35:47;100465.16;;;28.15;19.17
39954;BME280;25631;51.516;-0.470;2022-08-14T10:38:28;100466.39;;;28.28;19.18
39954;BME280;25631;51.516;-0.470;2022-08-14T10:41:10;100464.35;;;28.49;18.73
39954;BME280;25631;51.516;-0.470;2022-08-14T10:44:05;100463.86;;;28.83;18.38
39954;BME280;25631;51.516;-0.470;2022-08-14T10:46:44;100460.91;;;28.58;18.65
39954;BME280;25631;51.516;-0.470;2022-08-14T10:49:21;100460.08;;;28.78;17.85
39954;BME280;25631;51.516;-0.470;2022-08-14T10:52:00;100456.23;;;28.95;17.79
39954;BME280;25631;51.516;-0.470;2022-08-14T10:54:39;100454.35;;;28.78;17.99
39954;BME280;25631;51.516;-0.470;2022-08-14T10:57:18;100451.65;;;29.00;17.78
39954;BME280;25631;51.516;-0.470;2022-08-14T10:59:57;100449.16;;;29.14;17.77
39954;BME280;25631;51.516;-0.470;2022-08-14T11:02:35;100447.04;;;29.18;17.84
39954;BME280;25631;51.516;-0.470;2022-08-14T11:05:14;100440.98;;;29.45;17.47
39954;BME280;25631;51.516;-0.470;2022-08-14T11:07:57;100440.13;;;29.44;17.52
39954;BME280;25631;51.516;-0.470;2022-08-14T11:10:41;100437.25;;;29.43;17.38
39954;BME280;25631;51.516;-0.470;2022-08-14T11:13:19;100427.28;;;29.52;17.22
39954;BME280;25631;51.516;-0.470;2022-08-14T11:15:58;100431.88;;;29.41;17.22
39954;BME280;25631;51.516;-0.470;2022-08-14T11:18:36;100424.71;;;29.79;17.17
39954;BME280;25631;51.516;-0.470;2022-08-14T11:21:15;100421.06;;;29.85;17.06
39954;BME280;25631;51.516;-0.470;2022-08-14T11:23:52;100421.90;;;30.03;17.02
39954;BME280;25631;51.516;-0.470;2022-08-14T11:26:29;100416.64;;;30.12;16.59
39954;BME280;25631;51.516;-0.470;2022-08-14T11:29:07;100411.47;;;29.98;16.27
39954;BME280;25631;51.516;-0.470;2022-08-14T11:31:45;100408.40;;;30.17;16.50
39954;BME280;25631;51.516;-0.470;2022-08-14T11:34:22;100406.83;;;30.33;16.33
39954;BME280;25631;51.516;-0.470;2022-08-14T11:37:07;100409.78;;;30.15;15.88
39954;BME280;25631;51.516;-0.470;2022-08-14T11:39:44;100412.21;;;30.78;16.11
39954;BME280;25631;51.516;-0.470;2022-08-14T11:42:22;100408.17;;;30.63;14.79
39954;BME280;25631;51.516;-0.470;2022-08-14T11:45:03;100406.01;;;30.76;14.42
39954;BME280;25631;51.516;-0.470;2022-08-14T11:47:40;100399.57;;;30.68;14.82
39954;BME280;25631;51.516;-0.470;2022-08-14T11:50:18;100399.78;;;30.88;14.43
39954;BME280;25631;51.516;-0.470;2022-08-14T11:52:55;100399.32;;;31.01;13.53
39954;BME280;25631;51.516;-0.470;2022-08-14T11:55:34;100399.15;;;31.47;13.67
39954;BME280;25631;51.516;-0.470;2022-08-14T11:58:12;100399.31;;;31.48;14.15
39954;BME280;25631;51.516;-0.470;2022-08-14T12:00:54;100397.87;;;31.50;13.98
39954;BME280;25631;51.516;-0.470;2022-08-14T12:03:36;100391.88;;;31.68;14.12
39954;BME280;25631;51.516;-0.470;2022-08-14T12:06:15;100388.87;;;31.77;13.93
39954;BME280;25631;51.516;-0.470;2022-08-14T12:08:54;100390.84;;;32.16;13.91
39954;BME280;25631;51.516;-0.470;2022-08-14T12:11:38;100384.78;;;32.09;13.91
39954;BME280;25631;51.516;-0.470;2022-08-14T12:14:15;100383.01;;;32.02;13.54
39954;BME280;25631;51.516;-0.470;2022-08-14T12:17:00;100381.24;;;31.83;14.09
39954;BME280;25631;51.516;-0.470;2022-08-14T12:19:43;100378.44;;;32.10;14.10
39954;BME280;25631;51.516;-0.470;2022-08-14T12:22:32;100376.74;;;32.36;14.30
39954;BME280;25631;51.516;-0.470;2022-08-14T12:25:12;100372.76;;;32.34;13.76
39954;BME280;25631;51.516;-0.470;2022-08-14T12:27:51;100370.38;;;32.34;13.73
39954;BME280;25631;51.516;-0.470;2022-08-14T12:30:30;100363.26;;;32.84;13.99
39954;BME280;25631;51.516;-0.470;2022-08-14T12:33:19;100362.94;;;32.91;13.90
39954;BME280;25631;51.516;-0.470;2022-08-14T12:35:58;100362.14;;;33.00;13.30
39954;BME280;25631;51.516;-0.470;2022-08-14T12:38:37;100357.93;;;32.99;13.20
39954;BME280;25631;51.516;-0.470;2022-08-14T12:41:16;100350.53;;;33.20;12.80
39954;BME280;25631;51.516;-0.470;2022-08-14T12:43:55;100342.64;;;33.19;12.58
39954;BME280;25631;51.516;-0.470;2022-08-14T12:46:34;100335.78;;;33.00;12.49
39954;BME280;25631;51.516;-0.470;2022-08-14T12:49:12;100328.57;;;33.16;12.47
39954;BME280;25631;51.516;-0.470;2022-08-14T12:51:56;100335.14;;;33.15;12.75
39954;BME280;25631;51.516;-0.470;2022-08-14T12:54:33;100327.94;;;33.23;12.28
39954;BME280;25631;51.516;-0.470;2022-08-14T12:57:12;100328.57;;;33.28;12.27
39954;BME280;25631;51.516;-0.470;2022-08-14T12:59:49;100327.84;;;33.59;12.58
39954;BME280;25631;51.516;-0.470;2022-08-14T13:02:26;100327.87;;;33.16;12.64
39954;BME280;25631;51.516;-0.470;2022-08-14T13:05:03;100323.54;;;33.41;12.38
39954;BME280;25631;51.516;-0.470;2022-08-14T13:07:41;100323.94;;;32.93;12.06
39954;BME280;25631;51.516;-0.470;2022-08-14T13:10:19;100318.43;;;33.24;12.47
39954;BME280;25631;51.516;-0.470;2022-08-14T13:12:57;100317.05;;;32.78;12.48
39954;BME280;25631;51.516;-0.470;2022-08-14T13:15:33;100312.75;;;32.83;12.50
39954;BME280;25631;51.516;-0.470;2022-08-14T13:18:12;100308.94;;;33.36;12.34
39954;BME280;25631;51.516;-0.470;2022-08-14T13:20:49;100306.43;;;32.86;12.50
39954;BME280;25631;51.516;-0.470;2022-08-14T13:23:28;100303.06;;;33.59;12.53
39954;BME280;25631;51.516;-0.470;2022-08-14T13:26:08;100299.06;;;33.27;12.61
39954;BME280;25631;51.516;-0.470;2022-08-14T13:28:46;100300.60;;;33.40;12.67
39954;BME280;25631;51.516;-0.470;2022-08-14T13:31:24;100296.84;;;33.59;12.69
39954;BME280;25631;51.516;-0.470;2022-08-14T13:34:02;100291.85;;;33.36;12.53